sensor_id;sensor_type;location;lat;lon;timestamp;P1;durP1;ratioP1;P2;durP2;ratioP2
64210;SDS011;50528;48.514;14.394;2023-07-13T00:00:18;6.00;;;2.90;;
64210;SDS011;50528;48.514;14.394;2023-07-13T00:01:13;4.80;;;2.80;;
64210;SDS011;50528;48.514;14.394;2023-07-13T00:01:48;5.80;;;2.90;;
64210;SDS011;50528;48.514;14.394;2023-07-13T00:02:24;5.00;;;3.00;;
64210;SDS011;50528;48.514;14.394;2023-07-13T00:03:00;6.20;;;3.10;;
64210;SDS011;50528;48.514;14.394;2023-07-13T00:03:34;6.30;;;3.10;;
64210;SDS011;50528;48.514;14.394;2023-07-13T00:04:08;5.00;;;2.70;;
64210;SDS011;50528;48.514;14.394;2023-07-13T00:04:42;5.20;;;2.80;;
64210;SDS011;50528;48.514;14.394;2023-07-13T00:05:15;6.40;;;3.20;;
64210;SDS011;50528;48.514;14.394;2023-07-13T00:05:57;6.60;;;3.10;;
64210;SDS011;50528;48.514;14.394;2023-07-13T00:06:31;5.10;;;2.90;;
64210;SDS011;50528;48.514;14.394;2023-07-13T00:07:06;8.30;;;2.90;;
64210;SDS011;50528;48.514;14.394;2023-07-13T00:07:40;5.80;;;3.10;;
64210;SDS011;50528;48.514;14.394;2023-07-13T00:08:14;5.00;;;2.70;;
64210;SDS011;50528;48.514;14.394;2023-07-13T00:08:47;4.80;;;3.10;;
64210;SDS011;50528;48.514;14.394;2023-07-13T00:09:21;7.70;;;3.10;;
64210;SDS011;50528;48.514;14.394;2023-07-13T00:09:55;6.80;;;3.30;;
64210;SDS011;50528;48.514;14.394;2023-07-13T00:10:28;6.80;;;3.20;;
64210;SDS011;50528;48.514;14.394;2023-07-13T00:11:02;5.40;;;3.30;;
64210;SDS011;50528;48.514;14.394;2023-07-13T00:11:36;6.80;;;3.40;;
64210;SDS011;50528;48.514;14.394;2023-07-13T00:12:21;5.20;;;3.00;;
64210;SDS011;50528;48.514;14.394;2023-07-13T00:12:59;4.90;;;3.10;;
64210;SDS011;50528;48.514;14.394;2023-07-13T00:13:36;7.50;;;3.00;;
64210;SDS011;50528;48.514;14.394;2023-07-13T00:14:12;5.20;;;2.80;;
64210;SDS011;50528;48.514;14.394;2023-07-13T00:14:45;4.60;;;3.00;;
64210;SDS011;50528;48.514;14.394;2023-07-13T00:15:20;5.30;;;2.90;;
64210;SDS011;50528;48.514;14.394;2023-07-13T00:15:57;5.60;;;2.70;;
64210;SDS011;50528;48.514;14.394;2023-07-13T00:16:31;7.50;;;3.20;;
64210;SDS011;50528;48.514;14.394;2023-07-13T00:17:06;5.30;;;3.10;;
64210;SDS011;50528;48.514;14.394;2023-07-13T00:17:39;5.90;;;2.90;;
64210;SDS011;50528;48.514;14.394;2023-07-13T00:18:12;5.20;;;3.00;;
64210;SDS011;50528;48.514;14.394;2023-07-13T00:18:46;7.20;;;3.10;;
64210;SDS011;50528;48.514;14.394;2023-07-13T00:19:20;6.80;;;3.40;;
64210;SDS011;50528;48.514;14.394;2023-07-13T00:19:54;6.20;;;3.00;;
64210;SDS011;50528;48.514;14.394;2023-07-13T00:20:28;5.10;;;2.90;;
64210;SDS011;50528;48.514;14.394;2023-07-13T00:21:02;5.00;;;2.90;;
64210;SDS011;50528;48.514;14.394;2023-07-13T00:21:38;5.70;;;3.10;;
64210;SDS011;50528;48.514;14.394;2023-07-13T00:22:12;5.50;;;3.20;;
64210;SDS011;50528;48.514;14.394;2023-07-13T00:22:46;5.40;;;3.20;;
64210;SDS011;50528;48.514;14.394;2023-07-13T00:23:20;5.90;;;3.10;;
64210;SDS011;50528;48.514;14.394;2023-07-13T00:23:53;5.40;;;3.00;;
64210;SDS011;50528;48.514;14.394;2023-07-13T00:24:26;4.90;;;3.30;;
64210;SDS011;50528;48.514;14.394;2023-07-13T00:25:00;4.90;;;3.00;;
64210;SDS011;50528;48.514;14.394;2023-07-13T00:25:34;4.80;;;2.90;;
64210;SDS011;50528;48.514;14.394;2023-07-13T00:26:09;5.90;;;3.20;;
64210;SDS011;50528;48.514;14.394;2023-07-13T00:26:44;4.90;;;2.90;;
64210;SDS011;50528;48.514;14.394;2023-07-13T00:27:18;5.60;;;2.80;;
64210;SDS011;50528;48.514;14.394;2023-07-13T00:27:52;5.50;;;3.20;;
64210;SDS011;50528;48.514;14.394;2023-07-13T00:28:25;4.70;;;3.20;;
64210;SDS011;50528;48.514;14.394;2023-07-13T00:28:58;5.40;;;3.10;;
64210;SDS011;50528;48.514;14.394;2023-07-13T00:29:34;7.10;;;3.40;;
64210;SDS011;50528;48.514;14.394;2023-07-13T00:30:09;6.40;;;3.70;;
64210;SDS011;50528;48.514;14.394;2023-07-13T00:30:43;5.50;;;3.00;;
64210;SDS011;50528;48.514;14.394;2023-07-13T00:31:16;4.80;;;3.30;;
64210;SDS011;50528;48.514;14.394;2023-07-13T00:31:50;7.60;;;3.10;;
64210;SDS011;50528;48.514;14.394;2023-07-13T00:32:24;5.70;;;3.20;;
64210;SDS011;50528;48.514;14.394;2023-07-13T00:32:58;5.50;;;3.30;;
64210;SDS011;50528;48.514;14.394;2023-07-13T00:33:50;5.20;;;2.90;;
64210;SDS011;50528;48.514;14.394;2023-07-13T00:34:23;5.30;;;3.10;;
64210;SDS011;50528;48.514;14.394;2023-07-13T00:34:56;6.90;;;3.20;;
64210;SDS011;50528;48.514;14.394;2023-07-13T00:35:31;6.00;;;3.40;;
64210;SDS011;50528;48.514;14.394;2023-07-13T00:36:05;5.70;;;3.40;;
64210;SDS011;50528;48.514;14.394;2023-07-13T00:36:38;5.90;;;3.50;;
64210;SDS011;50528;48.514;14.394;2023-07-13T00:37:11;6.90;;;3.30;;
64210;SDS011;50528;48.514;14.394;2023-07-13T00:37:45;6.80;;;3.30;;
64210;SDS011;50528;48.514;14.394;2023-07-13T00:38:18;5.40;;;3.40;;
64210;SDS011;50528;48.514;14.394;2023-07-13T00:38:53;7.40;;;3.20;;
64210;SDS011;50528;48.514;14.394;2023-07-13T00:39:26;5.40;;;3.00;;
64210;SDS011;50528;48.514;14.394;2023-07-13T00:40:00;5.80;;;3.40;;
64210;SDS011;50528;48.514;14.394;2023-07-13T00:40:33;5.80;;;3.60;;
64210;SDS011;50528;48.514;14.394;2023-07-13T00:41:07;5.10;;;3.50;;
64210;SDS011;50528;48.514;14.394;2023-07-13T00:41:41;5.30;;;3.40;;
64210;SDS011;50528;48.514;14.394;2023-07-13T00:42:16;4.90;;;3.20;;
64210;SDS011;50528;48.514;14.394;2023-07-13T00:42:51;6.50;;;3.10;;
64210;SDS011;50528;48.514;14.394;2023-07-13T00:43:26;7.20;;;3.30;;
64210;SDS011;50528;48.514;14.394;2023-07-13T00:44:01;6.70;;;3.20;;
64210;SDS011;50528;48.514;14.394;2023-07-13T00:44:35;6.00;;;3.20;;
64210;SDS011;50528;48.514;14.394;2023-07-13T00:46:20;5.70;;;3.10;;
64210;SDS011;50528;48.514;14.394;2023-07-13T00:46:56;5.30;;;3.20;;
64210;SDS011;50528;48.514;14.394;2023-07-13T00:47:31;6.80;;;3.20;;
64210;SDS011;50528;48.514;14.394;2023-07-13T00:48:04;5.00;;;3.10;;
64210;SDS011;50528;48.514;14.394;2023-07-13T00:48:38;6.00;;;3.00;;
64210;SDS011;50528;48.514;14.394;2023-07-13T00:49:13;6.40;;;2.90;;
64210;SDS011;50528;48.514;14.394;2023-07-13T00:49:51;4.40;;;2.90;;
64210;SDS011;50528;48.514;14.394;2023-07-13T00:50:25;4.80;;;3.10;;
64210;SDS011;50528;48.514;14.394;2023-07-13T00:50:59;4.90;;;3.20;;
64210;SDS011;50528;48.514;14.394;2023-07-13T00:51:39;4.30;;;2.90;;
64210;SDS011;50528;48.514;14.394;2023-07-13T00:52:17;5.60;;;3.00;;
64210;SDS011;50528;48.514;14.394;2023-07-13T00:52:52;6.60;;;3.10;;
64210;SDS011;50528;48.514;14.394;2023-07-13T00:53:28;5.40;;;3.40;;
64210;SDS011;50528;48.514;14.394;2023-07-13T00:54:05;6.20;;;3.00;;
64210;SDS011;50528;48.514;14.394;2023-07-13T00:54:44;5.50;;;3.10;;
64210;SDS011;50528;48.514;14.394;2023-07-13T00:55:19;6.70;;;2.80;;
64210;SDS011;50528;48.514;14.394;2023-07-13T00:55:55;7.60;;;3.30;;
64210;SDS011;50528;48.514;14.394;2023-07-13T00:56:29;5.60;;;3.30;;
64210;SDS011;50528;48.514;14.394;2023-07-13T00:57:06;4.80;;;3.20;;
64210;SDS011;50528;48.514;14.394;2023-07-13T00:57:45;11.10;;;3.30;;
64210;SDS011;50528;48.514;14.394;2023-07-13T00:58:18;4.80;;;2.90;;
64210;SDS011;50528;48.514;14.394;2023-07-13T00:58:52;5.10;;;3.00;;
64210;SDS011;50528;48.514;14.394;2023-07-13T00:59:26;5.80;;;3.20;;
64210;SDS011;50528;48.514;14.394;2023-07-13T01:00:01;7.90;;;3.40;;
64210;SDS011;50528;48.514;14.394;2023-07-13T01:00:41;8.20;;;3.20;;
64210;SDS011;50528;48.514;14.394;2023-07-13T01:01:15;5.70;;;3.40;;
64210;SDS011;50528;48.514;14.394;2023-07-13T01:01:48;5.70;;;3.30;;
64210;SDS011;50528;48.514;14.394;2023-07-13T01:02:22;6.90;;;3.00;;
64210;SDS011;50528;48.514;14.394;2023-07-13T01:02:57;5.70;;;3.20;;
64210;SDS011;50528;48.514;14.394;2023-07-13T01:03:31;5.20;;;3.10;;
64210;SDS011;50528;48.514;14.394;2023-07-13T01:04:05;6.50;;;3.10;;
64210;SDS011;50528;48.514;14.394;2023-07-13T01:04:41;6.40;;;3.30;;
64210;SDS011;50528;48.514;14.394;2023-07-13T01:05:18;6.50;;;3.20;;
64210;SDS011;50528;48.514;14.394;2023-07-13T01:05:54;5.00;;;3.40;;
64210;SDS011;50528;48.514;14.394;2023-07-13T01:06:27;6.50;;;3.20;;
64210;SDS011;50528;48.514;14.394;2023-07-13T01:07:01;4.90;;;3.30;;
64210;SDS011;50528;48.514;14.394;2023-07-13T01:07:35;4.90;;;3.70;;
64210;SDS011;50528;48.514;14.394;2023-07-13T01:08:09;7.40;;;3.80;;
64210;SDS011;50528;48.514;14.394;2023-07-13T01:08:42;6.70;;;4.50;;
64210;SDS011;50528;48.514;14.394;2023-07-13T01:09:16;7.20;;;4.50;;
64210;SDS011;50528;48.514;14.394;2023-07-13T01:09:50;8.60;;;4.70;;
64210;SDS011;50528;48.514;14.394;2023-07-13T01:10:35;6.90;;;4.80;;
64210;SDS011;50528;48.514;14.394;2023-07-13T01:11:18;8.10;;;4.90;;
64210;SDS011;50528;48.514;14.394;2023-07-13T01:11:53;7.20;;;4.70;;
64210;SDS011;50528;48.514;14.394;2023-07-13T01:12:26;6.70;;;4.70;;
64210;SDS011;50528;48.514;14.394;2023-07-13T01:13:00;8.50;;;5.30;;
64210;SDS011;50528;48.514;14.394;2023-07-13T01:13:33;7.60;;;4.80;;
64210;SDS011;50528;48.514;14.394;2023-07-13T01:14:07;7.60;;;5.20;;
64210;SDS011;50528;48.514;14.394;2023-07-13T01:14:41;7.20;;;5.20;;
64210;SDS011;50528;48.514;14.394;2023-07-13T01:15:34;8.30;;;5.20;;
64210;SDS011;50528;48.514;14.394;2023-07-13T01:16:22;7.90;;;6.00;;
64210;SDS011;50528;48.514;14.394;2023-07-13T01:16:58;7.70;;;6.70;;
64210;SDS011;50528;48.514;14.394;2023-07-13T01:18:10;8.10;;;6.60;;
64210;SDS011;50528;48.514;14.394;2023-07-13T01:18:46;7.60;;;6.80;;
64210;SDS011;50528;48.514;14.394;2023-07-13T01:20:09;10.70;;;7.20;;
64210;SDS011;50528;48.514;14.394;2023-07-13T01:20:49;8.90;;;6.80;;
64210;SDS011;50528;48.514;14.394;2023-07-13T01:21:24;9.50;;;7.00;;
64210;SDS011;50528;48.514;14.394;2023-07-13T01:21:59;10.20;;;7.00;;
64210;SDS011;50528;48.514;14.394;2023-07-13T01:22:32;9.10;;;7.10;;
64210;SDS011;50528;48.514;14.394;2023-07-13T01:23:07;8.30;;;7.50;;
64210;SDS011;50528;48.514;14.394;2023-07-13T01:23:42;8.70;;;7.80;;
64210;SDS011;50528;48.514;14.394;2023-07-13T01:24:17;11.30;;;8.10;;
64210;SDS011;50528;48.514;14.394;2023-07-13T01:24:50;9.10;;;7.50;;
64210;SDS011;50528;48.514;14.394;2023-07-13T01:25:24;9.50;;;7.70;;
64210;SDS011;50528;48.514;14.394;2023-07-13T01:25:58;11.20;;;7.80;;
64210;SDS011;50528;48.514;14.394;2023-07-13T01:26:32;9.80;;;7.30;;
64210;SDS011;50528;48.514;14.394;2023-07-13T01:27:07;9.30;;;7.40;;
64210;SDS011;50528;48.514;14.394;2023-07-13T01:27:43;9.10;;;7.10;;
64210;SDS011;50528;48.514;14.394;2023-07-13T01:28:17;9.10;;;7.10;;
64210;SDS011;50528;48.514;14.394;2023-07-13T01:28:50;8.20;;;6.60;;
64210;SDS011;50528;48.514;14.394;2023-07-13T01:29:24;8.60;;;7.10;;
64210;SDS011;50528;48.514;14.394;2023-07-13T01:29:57;9.50;;;7.20;;
64210;SDS011;50528;48.514;14.394;2023-07-13T01:30:37;9.10;;;6.70;;
64210;SDS011;50528;48.514;14.394;2023-07-13T01:31:13;8.10;;;6.50;;
64210;SDS011;50528;48.514;14.394;2023-07-13T01:31:46;9.60;;;6.80;;
64210;SDS011;50528;48.514;14.394;2023-07-13T01:32:21;7.80;;;6.20;;
64210;SDS011;50528;48.514;14.394;2023-07-13T01:33:00;7.40;;;6.60;;
64210;SDS011;50528;48.514;14.394;2023-07-13T01:33:36;8.10;;;7.30;;
64210;SDS011;50528;48.514;14.394;2023-07-13T01:34:10;11.60;;;7.00;;
64210;SDS011;50528;48.514;14.394;2023-07-13T01:34:43;14.40;;;7.50;;
64210;SDS011;50528;48.514;14.394;2023-07-13T01:35:17;13.70;;;7.30;;
64210;SDS011;50528;48.514;14.394;2023-07-13T01:35:50;10.70;;;6.90;;
64210;SDS011;50528;48.514;14.394;2023-07-13T01:36:23;9.60;;;7.90;;
64210;SDS011;50528;48.514;14.394;2023-07-13T01:36:57;9.10;;;7.10;;
64210;SDS011;50528;48.514;14.394;2023-07-13T01:37:30;7.70;;;6.90;;
64210;SDS011;50528;48.514;14.394;2023-07-13T01:38:06;9.50;;;6.30;;
64210;SDS011;50528;48.514;14.394;2023-07-13T01:38:41;7.80;;;7.00;;
64210;SDS011;50528;48.514;14.394;2023-07-13T01:39:16;7.70;;;6.50;;
64210;SDS011;50528;48.514;14.394;2023-07-13T01:39:50;7.80;;;7.00;;
64210;SDS011;50528;48.514;14.394;2023-07-13T01:40:23;10.00;;;7.40;;
64210;SDS011;50528;48.514;14.394;2023-07-13T01:40:57;9.50;;;7.30;;
64210;SDS011;50528;48.514;14.394;2023-07-13T01:41:30;10.30;;;7.20;;
64210;SDS011;50528;48.514;14.394;2023-07-13T01:42:17;9.80;;;7.70;;
64210;SDS011;50528;48.514;14.394;2023-07-13T01:43:07;7.20;;;6.20;;
64210;SDS011;50528;48.514;14.394;2023-07-13T01:43:41;7.80;;;6.60;;
64210;SDS011;50528;48.514;14.394;2023-07-13T01:44:14;9.20;;;7.00;;
64210;SDS011;50528;48.514;14.394;2023-07-13T01:44:47;9.80;;;7.40;;
64210;SDS011;50528;48.514;14.394;2023-07-13T01:45:21;7.90;;;7.10;;
64210;SDS011;50528;48.514;14.394;2023-07-13T01:45:54;10.20;;;7.30;;
64210;SDS011;50528;48.514;14.394;2023-07-13T01:46:41;8.30;;;6.90;;
64210;SDS011;50528;48.514;14.394;2023-07-13T01:47:16;10.20;;;7.00;;
64210;SDS011;50528;48.514;14.394;2023-07-13T01:47:50;9.00;;;7.00;;
64210;SDS011;50528;48.514;14.394;2023-07-13T01:48:24;8.60;;;7.10;;
64210;SDS011;50528;48.514;14.394;2023-07-13T01:48:57;8.40;;;6.90;;
64210;SDS011;50528;48.514;14.394;2023-07-13T01:51:16;8.10;;;7.30;;
64210;SDS011;50528;48.514;14.394;2023-07-13T01:51:52;8.90;;;7.80;;
64210;SDS011;50528;48.514;14.394;2023-07-13T01:52:25;10.10;;;7.30;;
64210;SDS011;50528;48.514;14.394;2023-07-13T01:52:58;9.90;;;7.70;;
64210;SDS011;50528;48.514;14.394;2023-07-13T01:53:31;10.70;;;7.80;;
64210;SDS011;50528;48.514;14.394;2023-07-13T01:54:07;10.30;;;7.80;;
64210;SDS011;50528;48.514;14.394;2023-07-13T01:54:40;8.80;;;7.70;;
64210;SDS011;50528;48.514;14.394;2023-07-13T01:55:14;8.70;;;7.60;;
64210;SDS011;50528;48.514;14.394;2023-07-13T01:55:48;9.20;;;7.50;;
64210;SDS011;50528;48.514;14.394;2023-07-13T01:56:21;8.50;;;7.10;;
64210;SDS011;50528;48.514;14.394;2023-07-13T01:56:54;9.60;;;7.40;;
64210;SDS011;50528;48.514;14.394;2023-07-13T01:57:28;8.50;;;7.50;;
64210;SDS011;50528;48.514;14.394;2023-07-13T01:58:01;8.20;;;7.30;;
64210;SDS011;50528;48.514;14.394;2023-07-13T01:58:35;9.80;;;7.80;;
64210;SDS011;50528;48.514;14.394;2023-07-13T01:59:08;10.40;;;8.10;;
64210;SDS011;50528;48.514;14.394;2023-07-13T01:59:42;9.00;;;7.90;;
64210;SDS011;50528;48.514;14.394;2023-07-13T02:00:15;9.60;;;7.80;;
64210;SDS011;50528;48.514;14.394;2023-07-13T02:00:52;9.60;;;8.00;;
64210;SDS011;50528;48.514;14.394;2023-07-13T02:01:26;8.10;;;7.00;;
64210;SDS011;50528;48.514;14.394;2023-07-13T02:01:59;9.50;;;8.00;;
64210;SDS011;50528;48.514;14.394;2023-07-13T02:02:33;8.70;;;7.10;;
64210;SDS011;50528;48.514;14.394;2023-07-13T02:03:08;8.30;;;7.30;;
64210;SDS011;50528;48.514;14.394;2023-07-13T02:03:41;10.40;;;7.60;;
64210;SDS011;50528;48.514;14.394;2023-07-13T02:04:14;7.90;;;7.10;;
64210;SDS011;50528;48.514;14.394;2023-07-13T02:04:48;8.10;;;7.10;;
64210;SDS011;50528;48.514;14.394;2023-07-13T02:05:21;10.50;;;7.60;;
64210;SDS011;50528;48.514;14.394;2023-07-13T02:05:54;10.80;;;8.50;;
64210;SDS011;50528;48.514;14.394;2023-07-13T02:06:28;8.40;;;7.50;;
64210;SDS011;50528;48.514;14.394;2023-07-13T02:07:01;9.40;;;8.40;;
64210;SDS011;50528;48.514;14.394;2023-07-13T02:07:35;9.70;;;8.70;;
64210;SDS011;50528;48.514;14.394;2023-07-13T02:08:09;9.40;;;8.40;;
64210;SDS011;50528;48.514;14.394;2023-07-13T02:08:42;11.40;;;7.90;;
64210;SDS011;50528;48.514;14.394;2023-07-13T02:09:15;9.60;;;8.20;;
64210;SDS011;50528;48.514;14.394;2023-07-13T02:09:49;10.00;;;8.70;;
64210;SDS011;50528;48.514;14.394;2023-07-13T02:10:22;10.20;;;8.20;;
64210;SDS011;50528;48.514;14.394;2023-07-13T02:10:56;11.30;;;8.20;;
64210;SDS011;50528;48.514;14.394;2023-07-13T02:11:30;11.00;;;8.70;;
64210;SDS011;50528;48.514;14.394;2023-07-13T02:12:06;11.00;;;8.70;;
64210;SDS011;50528;48.514;14.394;2023-07-13T02:12:41;11.20;;;8.30;;
64210;SDS011;50528;48.514;14.394;2023-07-13T02:13:14;10.70;;;8.30;;
64210;SDS011;50528;48.514;14.394;2023-07-13T02:13:48;10.90;;;8.80;;
64210;SDS011;50528;48.514;14.394;2023-07-13T02:14:21;10.70;;;8.10;;
64210;SDS011;50528;48.514;14.394;2023-07-13T02:14:55;10.60;;;8.10;;
64210;SDS011;50528;48.514;14.394;2023-07-13T02:15:28;10.90;;;7.90;;
64210;SDS011;50528;48.514;14.394;2023-07-13T02:16:01;10.30;;;8.70;;
64210;SDS011;50528;48.514;14.394;2023-07-13T02:16:35;9.30;;;8.30;;
64210;SDS011;50528;48.514;14.394;2023-07-13T02:17:09;9.20;;;8.10;;
64210;SDS011;50528;48.514;14.394;2023-07-13T02:17:43;9.70;;;7.90;;
64210;SDS011;50528;48.514;14.394;2023-07-13T02:18:17;9.60;;;8.20;;
64210;SDS011;50528;48.514;14.394;2023-07-13T02:18:50;10.10;;;8.20;;
64210;SDS011;50528;48.514;14.394;2023-07-13T02:19:25;8.50;;;7.60;;
64210;SDS011;50528;48.514;14.394;2023-07-13T02:19:58;10.40;;;8.40;;
64210;SDS011;50528;48.514;14.394;2023-07-13T02:20:31;11.40;;;8.40;;
64210;SDS011;50528;48.514;14.394;2023-07-13T02:21:05;10.70;;;8.20;;
64210;SDS011;50528;48.514;14.394;2023-07-13T02:21:39;8.90;;;7.70;;
64210;SDS011;50528;48.514;14.394;2023-07-13T02:22:12;9.10;;;7.70;;
64210;SDS011;50528;48.514;14.394;2023-07-13T02:22:45;9.20;;;7.80;;
64210;SDS011;50528;48.514;14.394;2023-07-13T02:23:19;9.40;;;7.50;;
64210;SDS011;50528;48.514;14.394;2023-07-13T02:23:53;9.60;;;7.60;;
64210;SDS011;50528;48.514;14.394;2023-07-13T02:24:27;8.30;;;7.50;;
64210;SDS011;50528;48.514;14.394;2023-07-13T02:25:01;8.60;;;7.40;;
64210;SDS011;50528;48.514;14.394;2023-07-13T02:25:34;8.90;;;7.60;;
64210;SDS011;50528;48.514;14.394;2023-07-13T02:26:07;9.30;;;7.30;;
64210;SDS011;50528;48.514;14.394;2023-07-13T02:26:41;11.30;;;7.40;;
64210;SDS011;50528;48.514;14.394;2023-07-13T02:27:14;8.60;;;7.10;;
64210;SDS011;50528;48.514;14.394;2023-07-13T02:27:48;8.50;;;7.20;;
64210;SDS011;50528;48.514;14.394;2023-07-13T02:28:22;8.10;;;6.90;;
64210;SDS011;50528;48.514;14.394;2023-07-13T02:28:55;7.70;;;6.50;;
64210;SDS011;50528;48.514;14.394;2023-07-13T02:29:29;8.30;;;6.40;;
64210;SDS011;50528;48.514;14.394;2023-07-13T02:30:02;10.20;;;6.80;;
64210;SDS011;50528;48.514;14.394;2023-07-13T02:30:36;7.50;;;6.40;;
64210;SDS011;50528;48.514;14.394;2023-07-13T02:31:13;8.90;;;6.50;;
64210;SDS011;50528;48.514;14.394;2023-07-13T02:31:48;8.90;;;6.50;;
64210;SDS011;50528;48.514;14.394;2023-07-13T02:32:22;7.30;;;6.40;;
64210;SDS011;50528;48.514;14.394;2023-07-13T02:32:57;7.70;;;6.50;;
64210;SDS011;50528;48.514;14.394;2023-07-13T02:33:31;9.40;;;6.70;;
64210;SDS011;50528;48.514;14.394;2023-07-13T02:34:04;6.70;;;6.00;;
64210;SDS011;50528;48.514;14.394;2023-07-13T02:34:38;8.90;;;6.40;;
64210;SDS011;50528;48.514;14.394;2023-07-13T02:35:11;7.40;;;6.40;;
64210;SDS011;50528;48.514;14.394;2023-07-13T02:35:45;8.50;;;6.20;;
64210;SDS011;50528;48.514;14.394;2023-07-13T02:36:18;7.70;;;6.30;;
64210;SDS011;50528;48.514;14.394;2023-07-13T02:36:52;8.40;;;6.00;;
64210;SDS011;50528;48.514;14.394;2023-07-13T02:37:26;7.80;;;5.90;;
64210;SDS011;50528;48.514;14.394;2023-07-13T02:37:59;8.30;;;6.20;;
64210;SDS011;50528;48.514;14.394;2023-07-13T02:38:33;9.10;;;6.90;;
64210;SDS011;50528;48.514;14.394;2023-07-13T02:39:07;7.00;;;6.30;;
64210;SDS011;50528;48.514;14.394;2023-07-13T02:39:44;8.60;;;6.30;;
64210;SDS011;50528;48.514;14.394;2023-07-13T02:40:17;7.80;;;6.30;;
64210;SDS011;50528;48.514;14.394;2023-07-13T02:40:51;8.10;;;6.60;;
64210;SDS011;50528;48.514;14.394;2023-07-13T02:41:25;7.80;;;6.50;;
64210;SDS011;50528;48.514;14.394;2023-07-13T02:41:59;8.80;;;6.30;;
64210;SDS011;50528;48.514;14.394;2023-07-13T02:42:33;7.70;;;6.70;;
64210;SDS011;50528;48.514;14.394;2023-07-13T02:43:10;6.90;;;6.00;;
64210;SDS011;50528;48.514;14.394;2023-07-13T02:43:43;7.00;;;6.30;;
64210;SDS011;50528;48.514;14.394;2023-07-13T02:44:17;7.20;;;6.20;;
64210;SDS011;50528;48.514;14.394;2023-07-13T02:44:50;9.10;;;6.50;;
64210;SDS011;50528;48.514;14.394;2023-07-13T02:45:24;8.70;;;6.80;;
64210;SDS011;50528;48.514;14.394;2023-07-13T02:45:58;8.40;;;6.20;;
64210;SDS011;50528;48.514;14.394;2023-07-13T02:46:37;7.50;;;6.30;;
64210;SDS011;50528;48.514;14.394;2023-07-13T02:47:11;7.10;;;6.30;;
64210;SDS011;50528;48.514;14.394;2023-07-13T02:47:44;7.70;;;6.80;;
64210;SDS011;50528;48.514;14.394;2023-07-13T02:48:17;8.50;;;6.70;;
64210;SDS011;50528;48.514;14.394;2023-07-13T02:48:51;7.60;;;6.20;;
64210;SDS011;50528;48.514;14.394;2023-07-13T02:49:26;8.90;;;6.60;;
64210;SDS011;50528;48.514;14.394;2023-07-13T02:49:59;9.10;;;6.50;;
64210;SDS011;50528;48.514;14.394;2023-07-13T02:50:33;8.60;;;6.50;;
64210;SDS011;50528;48.514;14.394;2023-07-13T02:51:06;7.70;;;6.60;;
64210;SDS011;50528;48.514;14.394;2023-07-13T02:51:41;6.80;;;6.10;;
64210;SDS011;50528;48.514;14.394;2023-07-13T02:52:14;7.80;;;6.60;;
64210;SDS011;50528;48.514;14.394;2023-07-13T02:52:48;8.30;;;6.20;;
64210;SDS011;50528;48.514;14.394;2023-07-13T02:53:21;9.10;;;6.80;;
64210;SDS011;50528;48.514;14.394;2023-07-13T02:53:55;9.30;;;6.50;;
64210;SDS011;50528;48.514;14.394;2023-07-13T02:54:28;14.70;;;7.20;;
64210;SDS011;50528;48.514;14.394;2023-07-13T02:55:02;7.50;;;6.70;;
64210;SDS011;50528;48.514;14.394;2023-07-13T02:55:35;8.60;;;6.50;;
64210;SDS011;50528;48.514;14.394;2023-07-13T02:56:09;7.10;;;6.40;;
64210;SDS011;50528;48.514;14.394;2023-07-13T02:56:45;9.10;;;6.70;;
64210;SDS011;50528;48.514;14.394;2023-07-13T02:57:18;8.30;;;6.80;;
64210;SDS011;50528;48.514;14.394;2023-07-13T02:57:52;7.60;;;6.70;;
64210;SDS011;50528;48.514;14.394;2023-07-13T02:58:25;8.40;;;6.90;;
64210;SDS011;50528;48.514;14.394;2023-07-13T02:58:58;9.10;;;6.80;;
64210;SDS011;50528;48.514;14.394;2023-07-13T02:59:32;8.00;;;6.60;;
64210;SDS011;50528;48.514;14.394;2023-07-13T03:00:06;9.50;;;6.50;;
64210;SDS011;50528;48.514;14.394;2023-07-13T03:00:40;7.70;;;6.80;;
64210;SDS011;50528;48.514;14.394;2023-07-13T03:01:14;9.00;;;7.00;;
64210;SDS011;50528;48.514;14.394;2023-07-13T03:01:52;7.80;;;6.40;;
64210;SDS011;50528;48.514;14.394;2023-07-13T03:02:25;8.70;;;6.90;;
64210;SDS011;50528;48.514;14.394;2023-07-13T03:03:01;7.60;;;6.80;;
64210;SDS011;50528;48.514;14.394;2023-07-13T03:03:35;7.60;;;6.70;;
64210;SDS011;50528;48.514;14.394;2023-07-13T03:04:08;10.90;;;7.00;;
64210;SDS011;50528;48.514;14.394;2023-07-13T03:04:42;8.60;;;6.90;;
64210;SDS011;50528;48.514;14.394;2023-07-13T03:05:15;9.10;;;6.80;;
64210;SDS011;50528;48.514;14.394;2023-07-13T03:05:57;8.30;;;6.90;;
64210;SDS011;50528;48.514;14.394;2023-07-13T03:06:34;8.70;;;6.70;;
64210;SDS011;50528;48.514;14.394;2023-07-13T03:07:08;8.60;;;7.00;;
64210;SDS011;50528;48.514;14.394;2023-07-13T03:07:42;9.40;;;6.80;;
64210;SDS011;50528;48.514;14.394;2023-07-13T03:08:16;9.80;;;6.90;;
64210;SDS011;50528;48.514;14.394;2023-07-13T03:08:51;7.70;;;6.90;;
64210;SDS011;50528;48.514;14.394;2023-07-13T03:09:24;9.50;;;7.00;;
64210;SDS011;50528;48.514;14.394;2023-07-13T03:09:58;10.20;;;7.20;;
64210;SDS011;50528;48.514;14.394;2023-07-13T03:10:40;9.60;;;6.50;;
64210;SDS011;50528;48.514;14.394;2023-07-13T03:11:16;8.70;;;6.90;;
64210;SDS011;50528;48.514;14.394;2023-07-13T03:11:57;9.50;;;7.00;;
64210;SDS011;50528;48.514;14.394;2023-07-13T03:12:35;8.60;;;6.80;;
64210;SDS011;50528;48.514;14.394;2023-07-13T03:13:10;9.90;;;6.70;;
64210;SDS011;50528;48.514;14.394;2023-07-13T03:13:43;9.30;;;6.90;;
64210;SDS011;50528;48.514;14.394;2023-07-13T03:14:17;8.50;;;6.90;;
64210;SDS011;50528;48.514;14.394;2023-07-13T03:14:50;8.30;;;6.40;;
64210;SDS011;50528;48.514;14.394;2023-07-13T03:15:24;7.40;;;6.50;;
64210;SDS011;50528;48.514;14.394;2023-07-13T03:15:59;8.30;;;6.90;;
64210;SDS011;50528;48.514;14.394;2023-07-13T03:16:32;7.50;;;6.60;;
64210;SDS011;50528;48.514;14.394;2023-07-13T03:17:05;8.10;;;6.20;;
64210;SDS011;50528;48.514;14.394;2023-07-13T03:17:40;8.30;;;6.40;;
64210;SDS011;50528;48.514;14.394;2023-07-13T03:18:13;8.40;;;6.40;;
64210;SDS011;50528;48.514;14.394;2023-07-13T03:18:47;7.00;;;6.00;;
64210;SDS011;50528;48.514;14.394;2023-07-13T03:19:21;8.90;;;6.60;;
64210;SDS011;50528;48.514;14.394;2023-07-13T03:19:55;7.80;;;6.10;;
64210;SDS011;50528;48.514;14.394;2023-07-13T03:20:31;8.80;;;6.50;;
64210;SDS011;50528;48.514;14.394;2023-07-13T03:21:06;7.90;;;5.60;;
64210;SDS011;50528;48.514;14.394;2023-07-13T03:21:40;6.40;;;5.70;;
64210;SDS011;50528;48.514;14.394;2023-07-13T03:22:14;7.60;;;5.90;;
64210;SDS011;50528;48.514;14.394;2023-07-13T03:22:48;7.60;;;5.70;;
64210;SDS011;50528;48.514;14.394;2023-07-13T03:23:22;5.90;;;5.20;;
64210;SDS011;50528;48.514;14.394;2023-07-13T03:23:56;7.40;;;5.60;;
64210;SDS011;50528;48.514;14.394;2023-07-13T03:24:29;7.10;;;5.70;;
64210;SDS011;50528;48.514;14.394;2023-07-13T03:25:03;6.90;;;5.10;;
64210;SDS011;50528;48.514;14.394;2023-07-13T03:25:37;7.40;;;5.50;;
64210;SDS011;50528;48.514;14.394;2023-07-13T03:26:12;8.70;;;5.00;;
64210;SDS011;50528;48.514;14.394;2023-07-13T03:26:51;7.10;;;5.30;;
64210;SDS011;50528;48.514;14.394;2023-07-13T03:27:24;6.40;;;5.10;;
64210;SDS011;50528;48.514;14.394;2023-07-13T03:27:58;7.10;;;5.30;;
64210;SDS011;50528;48.514;14.394;2023-07-13T03:28:32;6.40;;;5.30;;
64210;SDS011;50528;48.514;14.394;2023-07-13T03:29:07;7.40;;;5.30;;
64210;SDS011;50528;48.514;14.394;2023-07-13T03:29:41;7.70;;;5.20;;
64210;SDS011;50528;48.514;14.394;2023-07-13T03:30:14;5.80;;;4.80;;